Decoded Metar for DAUK (TOUGGOURT in ALGERIA) (IATA:TGR) | Meteo·Mobile Aviation Weather
aviador You're here:

DAUK Decoded Metar

TOUGGOURT in ALGERIA
Report Time2019-01-19 06:00:00
UTC Time2019-01-19 07:06:53
Flight Rules Old
Wind200° at 04 kt
W.Decomp.*RWY 19: 3.9 kt HW 0.7 kt RCW
W.Rank200° ranks 22
Current wind is below 200° avg. (8.7)
Visibility9999 m
Phenomena:N/A
Clouds:Few 040 Hf
Expected CloudBase > 2,000 ft AGL from Temp-Dew spread
CeilingNone
Temp03°C (ISA -11)
Dew Point-2°C (70% RH)
AAT-0.7°C
QNH1017 hPa
Density Alt-1,171 ft
Elevation279 ft
Report Wrong Elevation
Raw Report
DAUK 190600Z 20004KT 9999 FEW040 03/M02 Q1017=

Extra information for DAUK:More info

Metar Taf Metar & Taf Last 4 Metars F.Rules Stats Wind Profile Meteogram Temp Stats Airport Information Weather charts Add Link Nearby VenuesMetar ALERT Operation Metar Decoded Social comments